createdAt,value
2019-03-25T00:01:25.985Z,24.37
2019-03-25T00:03:55.806Z,22.52
2019-03-25T00:06:24.210Z,28.65
2019-03-25T00:09:04.568Z,20.88
2019-03-25T00:11:23.154Z,23.67
2019-03-25T00:13:51.410Z,23.85
2019-03-25T00:16:19.673Z,21.30
2019-03-25T00:18:47.930Z,22.90
2019-03-25T00:21:16.244Z,23.35
2019-03-25T00:23:44.452Z,18.37
2019-03-25T00:26:12.758Z,19.95
2019-03-25T00:28:41.117Z,29.12
2019-03-25T00:31:09.381Z,18.27
2019-03-25T00:33:37.695Z,18.90
2019-03-25T00:36:06.098Z,17.85
2019-03-25T00:38:34.438Z,14.18
2019-03-25T00:41:02.775Z,14.25
2019-03-25T00:43:31.075Z,13.55
2019-03-25T00:45:59.310Z,12.18
2019-03-25T00:48:28.733Z,12.05
2019-03-25T00:50:56.958Z,11.85
2019-03-25T00:53:25.339Z,11.35
2019-03-25T00:55:53.550Z,10.75
2019-03-25T00:58:21.901Z,11.48
2019-03-25T01:00:50.217Z,17.85
2019-03-25T01:03:18.621Z,12.55
2019-03-25T01:05:46.865Z,15.05
2019-03-25T01:08:15.182Z,15.78
2019-03-25T01:10:43.284Z,19.45
2019-03-25T01:13:11.602Z,15.83
2019-03-25T01:15:39.895Z,14.50
2019-03-25T01:18:16.733Z,19.90
2019-03-25T01:20:38.318Z,12.93
2019-03-25T01:23:06.710Z,10.45
2019-03-25T01:25:34.935Z,11.48
2019-03-25T01:28:03.311Z,11.10
2019-03-25T01:30:31.602Z,8.68
2019-03-25T01:32:59.981Z,7.80
2019-03-25T01:35:28.698Z,13.60
2019-03-25T01:37:57.012Z,11.57
2019-03-25T01:40:25.245Z,10.25
2019-03-25T01:42:53.534Z,10.35
2019-03-25T01:45:21.641Z,8.85
2019-03-25T01:47:49.914Z,14.58
2019-03-25T01:50:18.221Z,7.50
2019-03-25T01:52:46.506Z,7.33
2019-03-25T01:55:14.784Z,14.73
2019-03-25T01:57:42.976Z,10.70
2019-03-25T02:00:11.376Z,7.25
2019-03-25T02:02:39.910Z,12.43
2019-03-25T02:05:08.334Z,8.78
2019-03-25T02:07:36.728Z,11.22
2019-03-25T02:10:06.073Z,8.50
2019-03-25T02:12:35.703Z,11.10
2019-03-25T02:15:04.613Z,12.75
2019-03-25T02:17:33.154Z,12.47
2019-03-25T02:20:01.568Z,11.05
2019-03-25T02:22:31.486Z,12.85
2019-03-25T02:24:59.860Z,15.65
2019-03-25T02:27:28.074Z,11.93
2019-03-25T02:29:56.431Z,10.10
2019-03-25T02:32:24.642Z,10.82
2019-03-25T02:34:52.958Z,10.80
2019-03-25T02:37:21.382Z,10.60
2019-03-25T02:39:49.727Z,11.97
2019-03-25T02:42:17.989Z,9.00
2019-03-25T02:44:46.092Z,7.83
2019-03-25T02:47:14.458Z,12.78
2019-03-25T02:49:42.691Z,12.25
2019-03-25T02:52:10.976Z,9.70
2019-03-25T02:54:39.173Z,10.20
2019-03-25T02:57:07.376Z,8.43
2019-03-25T02:59:35.677Z,9.60
2019-03-25T03:02:03.909Z,11.00
2019-03-25T03:04:32.230Z,10.38
2019-03-25T03:07:00.582Z,11.35
2019-03-25T03:09:28.794Z,10.82
2019-03-25T03:11:57.183Z,7.80
2019-03-25T03:14:25.502Z,9.33
2019-03-25T03:16:53.783Z,10.10
2019-03-25T03:19:21.982Z,10.45
2019-03-25T03:21:50.405Z,13.78
2019-03-25T03:24:18.823Z,10.15
2019-03-25T03:26:47.197Z,8.50
2019-03-25T03:29:15.481Z,14.53
2019-03-25T03:31:43.638Z,6.40
2019-03-25T03:34:11.916Z,6.75
2019-03-25T03:36:40.113Z,9.03
2019-03-25T03:39:08.402Z,7.25
2019-03-25T03:41:36.645Z,8.18
2019-03-25T03:44:05.050Z,7.95
2019-03-25T03:46:33.266Z,7.12
2019-03-25T03:49:01.737Z,12.45
2019-03-25T03:51:30.043Z,7.03
2019-03-25T03:53:58.735Z,10.88
2019-03-25T03:56:28.325Z,10.82
2019-03-25T03:58:59.222Z,11.50
2019-03-25T04:01:28.284Z,8.13
2019-03-25T04:03:56.536Z,9.00
2019-03-25T04:06:24.654Z,7.75
2019-03-25T04:08:52.958Z,7.00
2019-03-25T04:11:21.173Z,10.82
2019-03-25T04:13:49.486Z,10.38
2019-03-25T04:16:17.815Z,6.60
2019-03-25T04:18:46.102Z,20.15
2019-03-25T04:21:14.338Z,8.35
2019-03-25T04:23:42.547Z,11.05
2019-03-25T04:26:10.853Z,13.58
2019-03-25T04:28:39.094Z,7.80
2019-03-25T04:31:07.467Z,9.58
2019-03-25T04:33:35.879Z,9.38
2019-03-25T04:36:04.238Z,11.25
2019-03-25T04:38:32.570Z,11.65
2019-03-25T04:41:00.846Z,10.15
2019-03-25T04:43:29.067Z,9.03
2019-03-25T04:45:58.360Z,12.18
2019-03-25T04:48:26.581Z,8.70
2019-03-25T04:50:54.865Z,8.60
2019-03-25T04:53:23.169Z,11.60
2019-03-25T04:55:51.442Z,9.78
2019-03-25T04:58:19.666Z,11.20
2019-03-25T05:00:47.964Z,9.73
2019-03-25T05:03:16.280Z,8.60
2019-03-25T05:05:44.568Z,9.98
2019-03-25T05:08:12.814Z,9.43
2019-03-25T05:10:41.181Z,11.57
2019-03-25T05:13:09.530Z,10.23
2019-03-25T05:15:37.858Z,10.15
2019-03-25T05:18:06.089Z,11.33
2019-03-25T05:20:34.405Z,10.28
2019-03-25T05:23:02.818Z,9.25
2019-03-25T05:25:31.103Z,13.18
2019-03-25T05:27:59.338Z,10.23
2019-03-25T05:30:27.633Z,14.85
2019-03-25T05:32:55.954Z,9.78
2019-03-25T05:35:24.208Z,10.98
2019-03-25T05:37:52.505Z,9.20
2019-03-25T05:40:20.804Z,9.75
2019-03-25T05:42:49.106Z,9.75
2019-03-25T05:45:17.318Z,14.43
2019-03-25T05:47:45.848Z,10.75
2019-03-25T05:50:14.158Z,11.40
2019-03-25T05:52:42.444Z,11.97
2019-03-25T05:55:10.893Z,9.03
2019-03-25T05:57:39.275Z,9.83
2019-03-25T06:00:07.653Z,11.03
2019-03-25T06:02:36.445Z,15.25
2019-03-25T06:05:04.934Z,9.45
2019-03-25T06:07:33.741Z,11.50
2019-03-25T06:10:01.967Z,11.70
2019-03-25T06:12:31.930Z,15.05
2019-03-25T06:15:00.167Z,14.07
2019-03-25T06:17:29.254Z,13.13
2019-03-25T06:19:57.592Z,10.28
2019-03-25T06:22:25.798Z,15.38
2019-03-25T06:24:54.198Z,8.68
2019-03-25T06:27:22.537Z,11.38
2019-03-25T06:29:50.825Z,9.40
2019-03-25T06:32:19.035Z,13.98
2019-03-25T06:34:47.425Z,13.70
2019-03-25T06:37:15.577Z,12.03
2019-03-25T06:39:43.858Z,13.20
2019-03-25T06:42:12.061Z,11.10
2019-03-25T06:44:40.468Z,12.15
2019-03-25T06:47:10.125Z,14.15
2019-03-25T06:49:38.316Z,10.85
2019-03-25T06:52:06.529Z,13.15
2019-03-25T06:54:40.260Z,11.38
2019-03-25T06:57:08.453Z,12.95
2019-03-25T06:59:36.741Z,9.90
2019-03-25T07:02:05.171Z,12.10
2019-03-25T07:04:33.497Z,11.28
2019-03-25T07:07:01.742Z,17.70
2019-03-25T07:10:11.386Z,10.70
2019-03-25T07:12:41.410Z,12.25
2019-03-25T07:15:10.011Z,16.55
2019-03-25T07:17:38.557Z,11.80
2019-03-25T07:20:07.826Z,9.03
2019-03-25T07:22:36.458Z,11.43
2019-03-25T07:25:05.060Z,12.95
2019-03-25T07:27:37.186Z,9.15
2019-03-25T07:30:04.439Z,9.45
2019-03-25T07:32:33.414Z,9.83
2019-03-25T07:35:01.748Z,10.63
2019-03-25T07:37:31.661Z,8.58
2019-03-25T07:39:59.796Z,10.43
2019-03-25T07:42:28.094Z,12.50
2019-03-25T07:44:56.344Z,10.08
2019-03-25T07:47:24.732Z,8.25
2019-03-25T07:49:53.057Z,9.15
2019-03-25T07:52:21.347Z,9.25
2019-03-25T07:54:49.576Z,12.78
2019-03-25T07:57:17.897Z,9.63
2019-03-25T07:59:46.352Z,6.95
2019-03-25T08:02:15.325Z,10.03
2019-03-25T08:04:43.833Z,5.95
2019-03-25T08:07:12.142Z,14.45
2019-03-25T08:09:40.391Z,12.45
2019-03-25T08:12:08.780Z,8.30
2019-03-25T08:14:36.995Z,8.40
2019-03-25T08:17:05.329Z,17.80
2019-03-25T08:19:33.667Z,8.38
2019-03-25T08:22:01.909Z,8.25
2019-03-25T08:24:30.297Z,12.13
2019-03-25T08:26:58.552Z,6.33
2019-03-25T08:29:26.861Z,9.13
2019-03-25T08:31:55.215Z,11.50
2019-03-25T08:34:23.502Z,6.15
2019-03-25T08:36:51.713Z,9.20
2019-03-25T08:39:20.116Z,5.87
2019-03-25T08:41:48.359Z,8.08
2019-03-25T08:44:16.686Z,5.87
2019-03-25T08:46:45.007Z,10.90
2019-03-25T08:49:13.500Z,4.55
2019-03-25T08:51:41.808Z,5.17
2019-03-25T08:54:10.113Z,6.33
2019-03-25T08:56:38.247Z,4.42
2019-03-25T08:59:06.661Z,6.72
2019-03-25T09:01:34.915Z,4.45
2019-03-25T09:04:03.353Z,6.55
2019-03-25T09:06:31.670Z,4.90
2019-03-25T09:09:00.123Z,7.10
2019-03-25T09:11:28.779Z,5.62
2019-03-25T09:13:57.005Z,6.97
2019-03-25T09:16:25.298Z,9.38
2019-03-25T09:18:53.533Z,7.58
2019-03-25T09:21:21.859Z,7.78
2019-03-25T09:23:50.177Z,6.37
2019-03-25T09:26:18.577Z,4.80
2019-03-25T09:28:46.893Z,4.05
2019-03-25T09:31:16.753Z,7.10
2019-03-25T09:33:45.865Z,9.90
2019-03-25T09:36:15.418Z,5.53
2019-03-25T09:38:44.353Z,3.83
2019-03-25T09:41:12.808Z,4.55
2019-03-25T09:43:41.233Z,6.10
2019-03-25T09:46:09.561Z,7.47
2019-03-25T09:48:37.997Z,7.90
2019-03-25T09:51:06.601Z,5.92
2019-03-25T09:53:34.947Z,6.62
2019-03-25T09:56:03.254Z,8.03
2019-03-25T09:58:36.530Z,6.05
2019-03-25T10:01:01.866Z,8.45
2019-03-25T10:03:30.070Z,7.78
2019-03-25T10:05:58.653Z,7.05
2019-03-25T10:08:27.071Z,7.72
2019-03-25T10:10:55.366Z,6.78
2019-03-25T10:13:23.712Z,10.15
2019-03-25T10:15:51.957Z,9.25
2019-03-25T10:18:20.270Z,6.42
2019-03-25T10:20:48.495Z,8.83
2019-03-25T10:23:16.900Z,7.33
2019-03-25T10:25:45.107Z,7.80
2019-03-25T10:28:13.541Z,6.62
2019-03-25T10:30:41.870Z,9.65
2019-03-25T10:33:10.207Z,8.35
2019-03-25T10:35:38.555Z,9.80
2019-03-25T10:38:18.880Z,8.90
2019-03-25T10:40:37.230Z,9.60
2019-03-25T10:43:05.609Z,7.90
2019-03-25T10:45:33.848Z,7.80
2019-03-25T10:48:02.262Z,10.88
2019-03-25T10:50:30.566Z,8.75
2019-03-25T10:52:58.808Z,9.03
2019-03-25T10:55:27.256Z,7.87
2019-03-25T10:57:55.521Z,10.55
2019-03-25T11:00:24.031Z,9.38
2019-03-25T11:02:52.278Z,9.83
2019-03-25T11:05:20.584Z,7.05
2019-03-25T11:07:48.843Z,10.50
2019-03-25T11:10:17.190Z,7.95
2019-03-25T11:12:45.691Z,6.05
2019-03-25T11:15:15.981Z,7.33
2019-03-25T11:17:44.481Z,5.55
2019-03-25T11:20:13.297Z,10.08
2019-03-25T11:22:41.725Z,5.65
2019-03-25T11:25:10.535Z,6.50
2019-03-25T11:27:40.361Z,10.60
2019-03-25T11:30:09.899Z,6.75
2019-03-25T11:32:38.630Z,11.25
2019-03-25T11:35:08.981Z,8.43
2019-03-25T11:37:37.905Z,4.05
2019-03-25T11:40:07.238Z,9.95
2019-03-25T11:42:36.550Z,9.43
2019-03-25T11:45:05.481Z,6.15
2019-03-25T11:47:35.372Z,6.00
2019-03-25T11:50:04.417Z,6.30
2019-03-25T11:52:33.810Z,8.70
2019-03-25T11:55:02.154Z,6.35
2019-03-25T11:57:31.805Z,7.25
2019-03-25T12:00:00.219Z,8.60
2019-03-25T12:02:29.347Z,6.08
2019-03-25T12:04:57.600Z,5.28
2019-03-25T12:07:25.912Z,4.42
2019-03-25T12:09:54.159Z,6.97
2019-03-25T12:12:22.451Z,8.03
2019-03-25T12:14:50.682Z,5.05
2019-03-25T12:17:19.136Z,5.03
2019-03-25T12:19:47.398Z,5.65
2019-03-25T12:22:15.756Z,4.97
2019-03-25T12:24:44.090Z,7.03
2019-03-25T12:27:12.408Z,3.80
2019-03-25T12:29:40.728Z,3.98
2019-03-25T12:32:08.975Z,3.92
2019-03-25T12:34:37.110Z,3.60
2019-03-25T12:37:05.414Z,5.22
2019-03-25T12:39:33.679Z,5.05
2019-03-25T12:42:02.003Z,4.47
2019-03-25T12:44:30.344Z,5.80
2019-03-25T12:46:58.629Z,3.85
2019-03-25T12:49:26.957Z,4.20
2019-03-25T12:51:55.353Z,2.95
2019-03-25T12:54:23.859Z,3.55
2019-03-25T12:56:52.158Z,4.03
2019-03-25T12:59:20.457Z,4.22
2019-03-25T13:01:53.131Z,4.90
2019-03-25T13:04:19.129Z,4.62
2019-03-25T13:06:47.374Z,6.08
2019-03-25T13:09:15.565Z,6.15
2019-03-25T13:11:43.816Z,6.95
2019-03-25T13:14:12.229Z,8.13
2019-03-25T13:16:40.477Z,7.70
2019-03-25T13:19:08.782Z,6.12
2019-03-25T13:21:37.011Z,7.72
2019-03-25T13:24:05.402Z,6.58
2019-03-25T13:26:33.620Z,6.80
2019-03-25T13:29:02.657Z,5.53
2019-03-25T13:31:31.094Z,6.47
2019-03-25T13:33:59.438Z,6.72
2019-03-25T13:36:27.680Z,6.53
2019-03-25T13:38:57.864Z,4.87
2019-03-25T13:41:26.011Z,4.87
2019-03-25T13:43:54.297Z,7.75
2019-03-25T13:46:22.585Z,7.35
2019-03-25T13:48:50.929Z,5.28
2019-03-25T13:51:19.186Z,4.75
2019-03-25T13:53:47.532Z,6.90
2019-03-25T13:56:15.865Z,3.90
2019-03-25T13:58:44.095Z,3.15
2019-03-25T14:01:12.408Z,4.70
2019-03-25T14:03:40.538Z,3.67
2019-03-25T14:06:08.833Z,6.78
2019-03-25T14:08:37.217Z,3.87
2019-03-25T14:11:05.692Z,5.47
2019-03-25T14:13:34.005Z,5.75
2019-03-25T14:16:02.323Z,3.70
2019-03-25T14:18:30.580Z,4.00
2019-03-25T14:20:59.974Z,5.28
2019-03-25T14:23:28.772Z,3.05
2019-03-25T14:25:57.213Z,3.05
2019-03-25T14:28:25.474Z,4.17
2019-03-25T14:30:53.760Z,4.25
2019-03-25T14:33:22.083Z,5.08
2019-03-25T14:35:50.411Z,3.25
2019-03-25T14:38:18.653Z,3.72
2019-03-25T14:40:47.098Z,3.80
2019-03-25T14:43:15.348Z,3.20
2019-03-25T14:45:43.604Z,4.97
2019-03-25T14:48:12.048Z,4.72
2019-03-25T14:50:40.279Z,3.87
2019-03-25T14:53:08.651Z,5.37
2019-03-25T14:55:37.033Z,4.58
2019-03-25T14:58:05.330Z,4.70
2019-03-25T15:00:34.067Z,3.12
2019-03-25T15:03:02.524Z,4.42
2019-03-25T15:05:30.745Z,5.50
2019-03-25T15:07:59.093Z,4.10
2019-03-25T15:10:27.357Z,5.30
2019-03-25T15:12:55.681Z,3.55
2019-03-25T15:15:23.944Z,2.40
2019-03-25T15:17:52.341Z,3.02
2019-03-25T15:20:20.615Z,2.92
2019-03-25T15:22:48.938Z,3.67
2019-03-25T15:25:17.790Z,3.02
2019-03-25T15:27:46.199Z,2.45
2019-03-25T15:30:14.781Z,3.67
2019-03-25T15:32:43.421Z,5.15
2019-03-25T15:35:11.888Z,3.27
2019-03-25T15:37:40.280Z,3.65
2019-03-25T15:40:09.867Z,4.80
2019-03-25T15:42:39.556Z,5.40
2019-03-25T15:45:08.807Z,2.45
2019-03-25T15:47:37.297Z,2.77
2019-03-25T15:50:08.134Z,3.20
2019-03-25T15:52:37.454Z,3.50
2019-03-25T15:55:06.141Z,13.62
2019-03-25T15:57:34.909Z,5.65
2019-03-25T16:00:04.310Z,10.28
2019-03-25T16:02:34.130Z,4.03
2019-03-25T16:05:02.667Z,4.10
2019-03-25T16:07:32.272Z,3.15
2019-03-25T16:10:01.007Z,2.55
2019-03-25T16:12:30.876Z,3.55
2019-03-25T16:14:59.171Z,5.62
2019-03-25T16:17:27.433Z,3.80
2019-03-25T16:19:55.793Z,3.25
2019-03-25T16:22:24.157Z,1.45
2019-03-25T16:24:52.492Z,2.00
2019-03-25T16:27:20.670Z,2.55
2019-03-25T16:29:49.024Z,2.90
2019-03-25T16:32:17.418Z,2.47
2019-03-25T16:34:45.748Z,1.55
2019-03-25T16:37:13.984Z,1.80
2019-03-25T16:39:42.662Z,3.35
2019-03-25T16:42:19.314Z,3.00
2019-03-25T16:44:53.224Z,1.60
2019-03-25T16:47:23.525Z,1.40
2019-03-25T16:49:58.058Z,1.80
2019-03-25T16:52:30.312Z,1.40
2019-03-25T16:54:59.895Z,1.62
2019-03-25T16:57:36.837Z,1.60
2019-03-25T17:00:06.175Z,1.67
2019-03-25T17:02:34.563Z,2.00
2019-03-25T17:05:08.505Z,3.55
2019-03-25T17:07:37.505Z,2.90
2019-03-25T17:10:07.056Z,2.22
2019-03-25T17:12:42.603Z,1.85
2019-03-25T17:15:23.919Z,1.52
2019-03-25T17:17:55.453Z,1.50
2019-03-25T17:20:23.958Z,2.10
2019-03-25T17:22:52.773Z,6.50
2019-03-25T17:25:21.048Z,3.85
2019-03-25T17:27:49.520Z,3.77
2019-03-25T17:30:19.750Z,4.62
2019-03-25T17:32:49.731Z,3.55
2019-03-25T17:35:18.035Z,2.75
2019-03-25T17:37:46.351Z,2.90
2019-03-25T17:40:14.742Z,4.33
2019-03-25T17:42:43.207Z,2.15
2019-03-25T17:45:13.086Z,2.95
2019-03-25T17:47:42.105Z,3.20
2019-03-25T17:50:10.803Z,3.75
2019-03-25T17:52:39.475Z,3.75
2019-03-25T17:55:07.811Z,4.65
2019-03-25T17:57:37.045Z,9.70
2019-03-25T18:00:07.705Z,3.22
2019-03-25T18:02:37.718Z,1.70
2019-03-25T18:05:06.384Z,2.37
2019-03-25T18:07:35.097Z,4.80
2019-03-25T18:10:04.211Z,1.90
2019-03-25T18:12:38.791Z,5.87
2019-03-25T18:15:05.610Z,4.67
2019-03-25T18:17:35.561Z,3.30
2019-03-25T18:20:05.496Z,4.37
2019-03-25T18:22:39.545Z,4.50
2019-03-25T18:25:05.332Z,4.10
2019-03-25T18:27:33.744Z,8.48
2019-03-25T18:30:02.076Z,5.30
2019-03-25T18:32:32.263Z,3.45
2019-03-25T18:35:00.935Z,7.30
2019-03-25T18:37:29.747Z,3.20
2019-03-25T18:39:58.254Z,3.87
2019-03-25T18:42:26.760Z,4.00
2019-03-25T18:44:55.141Z,2.92
2019-03-25T18:47:23.701Z,2.12
2019-03-25T18:49:52.390Z,3.15
2019-03-25T18:52:20.839Z,2.95
2019-03-25T18:54:49.281Z,3.72
2019-03-25T18:57:17.841Z,2.27
2019-03-25T18:59:46.301Z,4.15
2019-03-25T19:02:14.663Z,2.77
2019-03-25T19:04:43.423Z,4.95
2019-03-25T19:07:12.029Z,3.22
2019-03-25T19:09:40.426Z,4.12
2019-03-25T19:12:08.856Z,3.00
2019-03-25T19:14:37.329Z,2.65
2019-03-25T19:17:05.833Z,3.85
2019-03-25T19:19:34.306Z,3.10
2019-03-25T19:22:05.228Z,3.92
2019-03-25T19:24:33.060Z,4.67
2019-03-25T19:27:01.413Z,2.50
2019-03-25T19:29:30.008Z,3.80
2019-03-25T19:32:06.591Z,6.33
2019-03-25T19:34:28.771Z,2.85
2019-03-25T19:36:57.029Z,2.30
2019-03-25T19:39:25.383Z,4.15
2019-03-25T19:41:53.767Z,2.10
2019-03-25T19:44:22.120Z,4.85
2019-03-25T19:46:50.577Z,2.55
2019-03-25T19:49:19.142Z,2.95
2019-03-25T19:51:47.481Z,2.30
2019-03-25T19:54:15.925Z,2.10
2019-03-25T19:56:44.321Z,2.10
2019-03-25T19:59:12.639Z,6.65
2019-03-25T20:01:41.015Z,1.80
2019-03-25T20:04:09.384Z,3.70
2019-03-25T20:06:37.689Z,2.20
2019-03-25T20:09:07.233Z,2.15
2019-03-25T20:11:35.805Z,1.85
2019-03-25T20:14:04.196Z,2.20
2019-03-25T20:16:32.748Z,2.20
2019-03-25T20:19:01.049Z,2.20
2019-03-25T20:21:29.649Z,1.70
2019-03-25T20:23:58.163Z,3.10
2019-03-25T20:26:26.575Z,2.40
2019-03-25T20:28:54.990Z,1.90
2019-03-25T20:31:23.403Z,1.90
2019-03-25T20:33:52.010Z,2.08
2019-03-25T20:36:20.514Z,3.58
2019-03-25T20:38:49.372Z,2.33
2019-03-25T20:41:18.202Z,2.90
2019-03-25T20:43:46.617Z,3.80
2019-03-25T20:46:15.088Z,5.72
2019-03-25T20:48:43.539Z,3.47
2019-03-25T20:51:12.022Z,3.12
2019-03-25T20:53:40.553Z,3.10
2019-03-25T20:56:08.861Z,3.47
2019-03-25T20:58:37.421Z,4.85
2019-03-25T21:01:05.860Z,3.95
2019-03-25T21:03:34.329Z,3.60
2019-03-25T21:06:02.552Z,4.03
2019-03-25T21:08:31.045Z,3.17
2019-03-25T21:10:59.543Z,3.10
2019-03-25T21:13:28.181Z,3.05
2019-03-25T21:15:56.543Z,3.05
2019-03-25T21:18:25.105Z,3.83
2019-03-25T21:23:48.810Z,3.60
2019-03-25T21:26:17.115Z,6.20
2019-03-25T21:28:45.578Z,3.87
2019-03-25T21:31:13.904Z,4.33
2019-03-25T21:33:42.300Z,4.62
2019-03-25T21:36:10.657Z,4.60
2019-03-25T21:38:39.057Z,5.87
2019-03-25T21:41:07.511Z,7.08
2019-03-25T21:43:35.933Z,7.03
2019-03-25T21:46:04.268Z,8.35
2019-03-25T21:48:32.624Z,7.70
2019-03-25T21:51:01.078Z,7.92
2019-03-25T21:53:29.508Z,8.73
2019-03-25T21:55:57.852Z,9.73
2019-03-25T21:58:26.230Z,10.20
2019-03-25T22:00:54.778Z,11.80
2019-03-25T22:03:23.078Z,9.55
2019-03-25T22:05:51.403Z,11.73
2019-03-25T22:08:19.724Z,12.10
2019-03-25T22:10:48.075Z,12.30
2019-03-25T22:13:16.324Z,11.53
2019-03-25T22:15:44.618Z,12.05
2019-03-25T22:18:12.986Z,13.05
2019-03-25T22:20:41.373Z,14.80
2019-03-25T22:23:09.706Z,12.95
2019-03-25T22:25:38.080Z,13.00
2019-03-25T22:28:06.310Z,11.75
2019-03-25T22:30:34.581Z,15.15
2019-03-25T22:33:02.949Z,12.65
2019-03-25T22:35:31.352Z,11.93
2019-03-25T22:37:59.689Z,13.25
2019-03-25T22:40:27.949Z,12.88
2019-03-25T22:42:56.372Z,12.33
2019-03-25T22:45:29.184Z,11.93
2019-03-25T22:47:57.934Z,12.60
2019-03-25T22:50:27.707Z,14.95
2019-03-25T22:52:57.629Z,13.15
2019-03-25T22:55:26.150Z,11.55
2019-03-25T22:57:55.079Z,10.70
2019-03-25T23:00:24.590Z,12.10
2019-03-25T23:02:54.491Z,11.75
2019-03-25T23:05:22.732Z,12.90
2019-03-25T23:07:50.981Z,12.70
2019-03-25T23:10:19.421Z,11.95
2019-03-25T23:12:47.828Z,16.17
2019-03-25T23:15:16.192Z,11.93
2019-03-25T23:17:44.522Z,12.93
2019-03-25T23:20:12.790Z,12.15
2019-03-25T23:22:41.129Z,10.38
2019-03-25T23:25:09.388Z,11.22
2019-03-25T23:27:37.920Z,11.30
2019-03-25T23:30:06.722Z,10.43
2019-03-25T23:32:35.231Z,11.60
2019-03-25T23:35:03.849Z,13.62
2019-03-25T23:37:32.214Z,10.05
2019-03-25T23:40:00.666Z,11.35
2019-03-25T23:42:30.493Z,10.68
2019-03-25T23:44:58.826Z,11.43
2019-03-25T23:47:27.087Z,11.55
2019-03-25T23:49:55.622Z,11.63
2019-03-25T23:52:23.849Z,10.30
2019-03-25T23:54:52.215Z,11.65
2019-03-25T23:57:20.465Z,12.18
2019-03-25T23:59:48.773Z,11.10
